sensor_id;sensor_type;location;lat;lon;timestamp;pressure;altitude;pressure_sealevel;temperature;humidity
27425;BME280;15244;49.088;11.886;2022-12-10T00:00:17;94488.69;;;3.88;54.53
27425;BME280;15244;49.088;11.886;2022-12-10T00:05:27;94480.63;;;3.91;54.07
27425;BME280;15244;49.088;11.886;2022-12-10T00:10:31;94482.88;;;3.82;54.08
27425;BME280;15244;49.088;11.886;2022-12-10T00:15:38;94495.88;;;3.73;54.24
27425;BME280;15244;49.088;11.886;2022-12-10T00:20:42;94489.72;;;3.73;54.13
27425;BME280;15244;49.088;11.886;2022-12-10T00:25:51;94488.63;;;3.81;54.45
27425;BME280;15244;49.088;11.886;2022-12-10T00:31:08;94482.06;;;3.82;54.26
27425;BME280;15244;49.088;11.886;2022-12-10T00:36:23;94492.00;;;3.74;54.30
27425;BME280;15244;49.088;11.886;2022-12-10T00:41:30;94494.34;;;3.76;53.92
27425;BME280;15244;49.088;11.886;2022-12-10T00:46:45;94495.94;;;3.80;54.45
27425;BME280;15244;49.088;11.886;2022-12-10T00:51:56;94490.56;;;3.84;54.18
27425;BME280;15244;49.088;11.886;2022-12-10T00:57:04;94462.50;;;3.85;54.54
27425;BME280;15244;49.088;11.886;2022-12-10T01:02:08;94518.38;;;3.91;54.63
27425;BME280;15244;49.088;11.886;2022-12-10T01:07:23;94531.19;;;3.98;54.46
27425;BME280;15244;49.088;11.886;2022-12-10T01:12:27;94534.66;;;4.02;54.40
27425;BME280;15244;49.088;11.886;2022-12-10T01:17:34;94530.09;;;4.06;54.23
27425;BME280;15244;49.088;11.886;2022-12-10T01:22:46;94539.00;;;4.10;54.04
27425;BME280;15244;49.088;11.886;2022-12-10T01:27:56;94544.84;;;4.16;54.38
27425;BME280;15244;49.088;11.886;2022-12-10T01:33:00;94551.81;;;4.21;53.92
27425;BME280;15244;49.088;11.886;2022-12-10T01:38:20;94535.66;;;4.24;53.69
27425;BME280;15244;49.088;11.886;2022-12-10T01:43:27;94539.13;;;4.25;53.39
27425;BME280;15244;49.088;11.886;2022-12-10T01:48:30;94540.69;;;4.26;53.86
27425;BME280;15244;49.088;11.886;2022-12-10T01:53:33;94538.72;;;4.23;53.64
27425;BME280;15244;49.088;11.886;2022-12-10T01:58:45;94537.16;;;4.18;53.37
27425;BME280;15244;49.088;11.886;2022-12-10T02:04:03;94540.97;;;4.13;53.24
27425;BME280;15244;49.088;11.886;2022-12-10T02:09:38;94554.41;;;4.10;53.49
27425;BME280;15244;49.088;11.886;2022-12-10T02:20:17;94565.97;;;4.10;53.45
27425;BME280;15244;49.088;11.886;2022-12-10T02:25:39;94563.66;;;4.12;53.78
27425;BME280;15244;49.088;11.886;2022-12-10T02:30:50;94550.19;;;4.12;53.18
27425;BME280;15244;49.088;11.886;2022-12-10T02:36:12;94549.47;;;4.16;53.57
27425;BME280;15244;49.088;11.886;2022-12-10T02:41:26;94548.72;;;4.19;53.31
27425;BME280;15244;49.088;11.886;2022-12-10T02:46:41;94552.94;;;4.16;53.24
27425;BME280;15244;49.088;11.886;2022-12-10T02:51:50;94558.34;;;4.20;53.40
27425;BME280;15244;49.088;11.886;2022-12-10T02:56:59;94546.03;;;4.22;53.42
27425;BME280;15244;49.088;11.886;2022-12-10T03:07:58;94529.09;;;4.25;53.53
27425;BME280;15244;49.088;11.886;2022-12-10T03:13:08;94515.25;;;4.27;53.53
27425;BME280;15244;49.088;11.886;2022-12-10T03:18:30;94516.06;;;4.31;53.34
27425;BME280;15244;49.088;11.886;2022-12-10T03:23:46;94519.53;;;4.31;53.52
27425;BME280;15244;49.088;11.886;2022-12-10T03:29:03;94527.63;;;4.31;53.59
27425;BME280;15244;49.088;11.886;2022-12-10T03:34:14;94529.56;;;4.31;53.45
27425;BME280;15244;49.088;11.886;2022-12-10T03:39:27;94531.88;;;4.32;53.58
27425;BME280;15244;49.088;11.886;2022-12-10T03:44:40;94530.75;;;4.33;53.26
27425;BME280;15244;49.088;11.886;2022-12-10T03:49:59;94526.88;;;4.31;53.37
27425;BME280;15244;49.088;11.886;2022-12-10T03:55:10;94534.13;;;4.23;53.40
27425;BME280;15244;49.088;11.886;2022-12-10T04:00:12;94534.84;;;4.20;53.63
27425;BME280;15244;49.088;11.886;2022-12-10T04:05:18;94530.59;;;4.19;53.91
27425;BME280;15244;49.088;11.886;2022-12-10T04:10:21;94540.22;;;4.20;53.78
27425;BME280;15244;49.088;11.886;2022-12-10T04:15:23;94531.72;;;4.15;53.53
27425;BME280;15244;49.088;11.886;2022-12-10T04:20:48;94526.63;;;4.06;53.57
27425;BME280;15244;49.088;11.886;2022-12-10T04:26:11;94520.81;;;4.00;53.91
27425;BME280;15244;49.088;11.886;2022-12-10T04:31:36;94534.63;;;3.95;54.01
27425;BME280;15244;49.088;11.886;2022-12-10T04:36:40;94537.31;;;3.95;54.01
27425;BME280;15244;49.088;11.886;2022-12-10T04:41:48;94535.00;;;3.97;53.95
27425;BME280;15244;49.088;11.886;2022-12-10T04:46:50;94536.94;;;3.97;54.10
27425;BME280;15244;49.088;11.886;2022-12-10T04:51:55;94542.72;;;3.99;53.96
27425;BME280;15244;49.088;11.886;2022-12-10T04:56:59;94550.06;;;4.02;53.88
27425;BME280;15244;49.088;11.886;2022-12-10T05:02:07;94548.94;;;4.03;54.13
27425;BME280;15244;49.088;11.886;2022-12-10T05:07:17;94550.13;;;4.05;54.20
27425;BME280;15244;49.088;11.886;2022-12-10T05:12:34;94537.78;;;4.04;54.24
27425;BME280;15244;49.088;11.886;2022-12-10T05:17:45;94540.06;;;4.02;54.13
27425;BME280;15244;49.088;11.886;2022-12-10T05:22:52;94540.03;;;3.99;54.16
27425;BME280;15244;49.088;11.886;2022-12-10T05:28:22;94534.63;;;3.95;54.31
27425;BME280;15244;49.088;11.886;2022-12-10T05:33:33;94540.72;;;3.92;54.21
27425;BME280;15244;49.088;11.886;2022-12-10T05:38:40;94544.94;;;3.89;54.46
27425;BME280;15244;49.088;11.886;2022-12-10T05:43:46;94547.19;;;3.84;54.51
27425;BME280;15244;49.088;11.886;2022-12-10T05:48:51;94541.38;;;3.82;54.93
27425;BME280;15244;49.088;11.886;2022-12-10T05:54:03;94543.31;;;3.81;54.67
27425;BME280;15244;49.088;11.886;2022-12-10T05:59:11;94535.28;;;3.85;54.78
27425;BME280;15244;49.088;11.886;2022-12-10T06:04:27;94551.06;;;3.86;54.70
27425;BME280;15244;49.088;11.886;2022-12-10T06:09:34;94550.31;;;3.86;54.97
27425;BME280;15244;49.088;11.886;2022-12-10T06:14:35;94550.66;;;3.84;54.54
27425;BME280;15244;49.088;11.886;2022-12-10T06:19:39;94556.84;;;3.85;54.71
27425;BME280;15244;49.088;11.886;2022-12-10T06:24:44;94556.78;;;3.81;54.89
27425;BME280;15244;49.088;11.886;2022-12-10T06:29:46;94556.03;;;3.81;54.61
27425;BME280;15244;49.088;11.886;2022-12-10T06:34:50;94561.00;;;3.79;54.44
27425;BME280;15244;49.088;11.886;2022-12-10T06:39:53;94583.75;;;3.81;54.81
27425;BME280;15244;49.088;11.886;2022-12-10T06:44:57;94576.84;;;3.84;54.62
27425;BME280;15244;49.088;11.886;2022-12-10T06:50:02;94589.97;;;3.85;54.58
27425;BME280;15244;49.088;11.886;2022-12-10T06:55:09;94585.00;;;3.87;54.49
27425;BME280;15244;49.088;11.886;2022-12-10T07:00:13;94588.06;;;3.89;54.66
27425;BME280;15244;49.088;11.886;2022-12-10T07:05:22;94584.63;;;3.89;54.61
27425;BME280;15244;49.088;11.886;2022-12-10T07:10:32;94584.59;;;3.85;54.70
27425;BME280;15244;49.088;11.886;2022-12-10T07:15:43;94558.81;;;3.88;54.40
27425;BME280;15244;49.088;11.886;2022-12-10T07:20:47;94557.72;;;3.96;54.89
27425;BME280;15244;49.088;11.886;2022-12-10T07:25:56;94570.53;;;4.03;54.94
27425;BME280;15244;49.088;11.886;2022-12-10T07:31:04;94570.03;;;3.94;54.61
27425;BME280;15244;49.088;11.886;2022-12-10T07:36:10;94585.78;;;3.88;54.81
27425;BME280;15244;49.088;11.886;2022-12-10T07:41:23;94587.19;;;3.78;54.96
27425;BME280;15244;49.088;11.886;2022-12-10T07:46:37;94595.94;;;3.68;55.10
27425;BME280;15244;49.088;11.886;2022-12-10T07:51:39;94600.50;;;3.64;54.96
27425;BME280;15244;49.088;11.886;2022-12-10T07:56:46;94616.25;;;3.62;54.93
27425;BME280;15244;49.088;11.886;2022-12-10T08:01:56;94618.22;;;3.65;55.18
27425;BME280;15244;49.088;11.886;2022-12-10T08:07:07;94615.97;;;3.71;55.02
27425;BME280;15244;49.088;11.886;2022-12-10T08:12:14;94615.28;;;3.77;55.02
27425;BME280;15244;49.088;11.886;2022-12-10T08:17:23;94621.56;;;3.85;55.20
27425;BME280;15244;49.088;11.886;2022-12-10T08:22:28;94625.84;;;3.89;54.71
27425;BME280;15244;49.088;11.886;2022-12-10T08:27:43;94626.31;;;3.95;54.60
27425;BME280;15244;49.088;11.886;2022-12-10T08:32:45;94623.28;;;4.00;54.76
27425;BME280;15244;49.088;11.886;2022-12-10T08:37:51;94627.88;;;4.00;54.80
27425;BME280;15244;49.088;11.886;2022-12-10T08:43:00;94627.94;;;4.03;54.81
27425;BME280;15244;49.088;11.886;2022-12-10T08:48:05;94627.56;;;4.05;54.89
27425;BME280;15244;49.088;11.886;2022-12-10T08:53:07;94634.50;;;4.06;54.48
27425;BME280;15244;49.088;11.886;2022-12-10T08:58:15;94641.00;;;4.01;54.77
27425;BME280;15244;49.088;11.886;2022-12-10T09:03:16;94641.34;;;4.00;54.57
27425;BME280;15244;49.088;11.886;2022-12-10T09:08:18;94632.56;;;4.03;54.78
27425;BME280;15244;49.088;11.886;2022-12-10T09:13:41;94633.31;;;4.03;54.68
27425;BME280;15244;49.088;11.886;2022-12-10T09:19:06;94631.38;;;4.00;54.66
27425;BME280;15244;49.088;11.886;2022-12-10T09:24:30;94621.38;;;4.04;54.59
27425;BME280;15244;49.088;11.886;2022-12-10T09:29:37;94642.63;;;4.09;54.57
27425;BME280;15244;49.088;11.886;2022-12-10T09:34:42;94642.31;;;4.15;54.59
27425;BME280;15244;49.088;11.886;2022-12-10T09:39:51;94640.75;;;4.13;54.61
27425;BME280;15244;49.088;11.886;2022-12-10T09:45:15;94626.19;;;4.18;54.54
27425;BME280;15244;49.088;11.886;2022-12-10T09:56:24;94620.19;;;4.36;54.61
27425;BME280;15244;49.088;11.886;2022-12-10T10:01:34;94610.19;;;4.40;54.62
27425;BME280;15244;49.088;11.886;2022-12-10T10:06:37;94619.81;;;4.37;54.73
27425;BME280;15244;49.088;11.886;2022-12-10T10:11:42;94610.16;;;4.36;54.67
27425;BME280;15244;49.088;11.886;2022-12-10T10:16:58;94601.75;;;4.41;54.37
27425;BME280;15244;49.088;11.886;2022-12-10T10:22:01;94592.56;;;4.49;54.37
27425;BME280;15244;49.088;11.886;2022-12-10T10:27:20;94611.47;;;4.53;54.77
27425;BME280;15244;49.088;11.886;2022-12-10T10:37:44;94626.13;;;4.52;54.29
27425;BME280;15244;49.088;11.886;2022-12-10T10:42:57;94627.38;;;4.62;54.69
27425;BME280;15244;49.088;11.886;2022-12-10T10:48:21;94629.00;;;4.73;54.73
27425;BME280;15244;49.088;11.886;2022-12-10T10:58:53;94638.00;;;4.88;54.23
27425;BME280;15244;49.088;11.886;2022-12-10T11:04:01;94623.75;;;4.88;54.23
27425;BME280;15244;49.088;11.886;2022-12-10T11:09:04;94619.44;;;4.83;53.61
27425;BME280;15244;49.088;11.886;2022-12-10T11:14:30;94612.84;;;4.77;53.81
27425;BME280;15244;49.088;11.886;2022-12-10T11:25:30;94586.19;;;4.72;53.81
27425;BME280;15244;49.088;11.886;2022-12-10T11:30:53;94585.38;;;4.68;53.50
27425;BME280;15244;49.088;11.886;2022-12-10T11:41:46;94581.50;;;4.65;53.97
27425;BME280;15244;49.088;11.886;2022-12-10T11:52:20;94589.59;;;4.65;53.50
27425;BME280;15244;49.088;11.886;2022-12-10T12:03:17;94593.53;;;4.75;53.92
27425;BME280;15244;49.088;11.886;2022-12-10T12:14:08;94599.00;;;4.82;53.33
27425;BME280;15244;49.088;11.886;2022-12-10T12:19:31;94592.84;;;4.85;53.36
27425;BME280;15244;49.088;11.886;2022-12-10T12:24:37;94591.34;;;4.88;53.22
27425;BME280;15244;49.088;11.886;2022-12-10T12:29:45;94593.69;;;4.93;53.19
27425;BME280;15244;49.088;11.886;2022-12-10T12:35:02;94589.53;;;5.03;53.68
27425;BME280;15244;49.088;11.886;2022-12-10T12:45:30;94593.88;;;5.18;53.38
27425;BME280;15244;49.088;11.886;2022-12-10T12:50:46;94607.38;;;5.18;52.63
27425;BME280;15244;49.088;11.886;2022-12-10T13:06:39;94608.78;;;4.97;52.63
27425;BME280;15244;49.088;11.886;2022-12-10T13:17:31;94620.75;;;4.96;52.32
27425;BME280;15244;49.088;11.886;2022-12-10T13:33:50;94652.00;;;4.97;52.42
27425;BME280;15244;49.088;11.886;2022-12-10T13:44:24;94652.63;;;4.80;52.35
27425;BME280;15244;49.088;11.886;2022-12-10T13:49:33;94657.19;;;4.76;51.84
27425;BME280;15244;49.088;11.886;2022-12-10T13:55:07;94651.00;;;4.72;51.76
27425;BME280;15244;49.088;11.886;2022-12-10T14:11:10;94677.59;;;4.70;52.24
27425;BME280;15244;49.088;11.886;2022-12-10T14:16:21;94678.38;;;4.70;52.00
27425;BME280;15244;49.088;11.886;2022-12-10T14:21:32;94684.53;;;4.71;51.37
27425;BME280;15244;49.088;11.886;2022-12-10T14:26:37;94686.47;;;4.70;51.62
27425;BME280;15244;49.088;11.886;2022-12-10T14:31:47;94700.00;;;4.74;51.55
27425;BME280;15244;49.088;11.886;2022-12-10T14:36:54;94697.69;;;4.76;51.54
27425;BME280;15244;49.088;11.886;2022-12-10T14:42:04;94710.09;;;4.81;51.26
27425;BME280;15244;49.088;11.886;2022-12-10T14:47:18;94708.22;;;4.85;51.16
27425;BME280;15244;49.088;11.886;2022-12-10T14:52:32;94719.03;;;4.88;51.51
27425;BME280;15244;49.088;11.886;2022-12-10T14:57:45;94712.09;;;4.87;51.19
27425;BME280;15244;49.088;11.886;2022-12-10T15:03:01;94720.53;;;4.82;50.97
27425;BME280;15244;49.088;11.886;2022-12-10T15:08:15;94729.38;;;4.79;51.25
27425;BME280;15244;49.088;11.886;2022-12-10T15:13:37;94725.84;;;4.75;51.60
27425;BME280;15244;49.088;11.886;2022-12-10T15:18:40;94728.19;;;4.76;51.18
27425;BME280;15244;49.088;11.886;2022-12-10T15:23:50;94736.28;;;4.76;51.63
27425;BME280;15244;49.088;11.886;2022-12-10T15:29:34;94736.25;;;4.73;51.62
27425;BME280;15244;49.088;11.886;2022-12-10T15:34:44;94745.50;;;4.72;51.52
27425;BME280;15244;49.088;11.886;2022-12-10T15:40:00;94748.53;;;4.67;51.57
27425;BME280;15244;49.088;11.886;2022-12-10T15:45:15;94740.38;;;4.63;51.90
27425;BME280;15244;49.088;11.886;2022-12-10T15:50:20;94748.88;;;4.65;52.04
27425;BME280;15244;49.088;11.886;2022-12-10T15:55:27;94759.69;;;4.65;52.19
27425;BME280;15244;49.088;11.886;2022-12-10T16:00:38;94757.72;;;4.62;51.90
27425;BME280;15244;49.088;11.886;2022-12-10T16:05:46;94746.53;;;4.60;51.81
27425;BME280;15244;49.088;11.886;2022-12-10T16:10:55;94751.06;;;4.52;52.02
27425;BME280;15244;49.088;11.886;2022-12-10T16:16:04;94768.41;;;4.51;52.28
27425;BME280;15244;49.088;11.886;2022-12-10T16:21:12;94761.13;;;4.55;52.58
27425;BME280;15244;49.088;11.886;2022-12-10T16:26:21;94773.09;;;4.58;52.52
27425;BME280;15244;49.088;11.886;2022-12-10T16:31:23;94776.22;;;4.60;52.87
27425;BME280;15244;49.088;11.886;2022-12-10T16:36:28;94778.13;;;4.56;52.88
27425;BME280;15244;49.088;11.886;2022-12-10T16:41:37;94773.81;;;4.51;52.27
27425;BME280;15244;49.088;11.886;2022-12-10T16:46:41;94791.53;;;4.49;53.07
27425;BME280;15244;49.088;11.886;2022-12-10T16:51:54;94786.13;;;4.49;52.79
27425;BME280;15244;49.088;11.886;2022-12-10T16:56:59;94790.69;;;4.45;52.85
27425;BME280;15244;49.088;11.886;2022-12-10T17:02:02;94797.91;;;4.37;52.82
27425;BME280;15244;49.088;11.886;2022-12-10T17:07:06;94803.28;;;4.33;52.90
27425;BME280;15244;49.088;11.886;2022-12-10T17:12:12;94824.88;;;4.33;53.24
27425;BME280;15244;49.088;11.886;2022-12-10T17:17:14;94815.19;;;4.32;52.87
27425;BME280;15244;49.088;11.886;2022-12-10T17:22:26;94823.28;;;4.32;52.89
27425;BME280;15244;49.088;11.886;2022-12-10T17:27:30;94819.78;;;4.28;52.99
27425;BME280;15244;49.088;11.886;2022-12-10T17:32:42;94821.28;;;4.26;53.33
27425;BME280;15244;49.088;11.886;2022-12-10T17:37:50;94827.41;;;4.23;53.22
27425;BME280;15244;49.088;11.886;2022-12-10T17:42:54;94827.03;;;4.24;53.48
27425;BME280;15244;49.088;11.886;2022-12-10T17:48:00;94823.19;;;4.25;53.87
27425;BME280;15244;49.088;11.886;2022-12-10T17:53:06;94826.69;;;4.26;53.54
27425;BME280;15244;49.088;11.886;2022-12-10T17:58:32;94826.69;;;4.26;53.86
27425;BME280;15244;49.088;11.886;2022-12-10T18:03:42;94829.78;;;4.28;53.75
27425;BME280;15244;49.088;11.886;2022-12-10T18:08:52;94838.59;;;4.25;53.63
27425;BME280;15244;49.088;11.886;2022-12-10T18:14:04;94838.19;;;4.23;53.73
27425;BME280;15244;49.088;11.886;2022-12-10T18:19:12;94840.84;;;4.19;53.49
27425;BME280;15244;49.088;11.886;2022-12-10T18:24:16;94846.97;;;4.16;53.99
27425;BME280;15244;49.088;11.886;2022-12-10T18:29:20;94849.66;;;4.16;53.84
27425;BME280;15244;49.088;11.886;2022-12-10T18:34:22;94849.22;;;4.10;54.25
27425;BME280;15244;49.088;11.886;2022-12-10T18:39:29;94849.53;;;4.05;54.13
27425;BME280;15244;49.088;11.886;2022-12-10T18:44:35;94848.94;;;3.93;54.38
27425;BME280;15244;49.088;11.886;2022-12-10T18:49:48;94856.78;;;3.78;54.25
27425;BME280;15244;49.088;11.886;2022-12-10T18:54:54;94853.50;;;3.65;54.21
27425;BME280;15244;49.088;11.886;2022-12-10T19:00:03;94862.91;;;3.52;54.14
27425;BME280;15244;49.088;11.886;2022-12-10T19:05:16;94853.09;;;3.40;54.38
27425;BME280;15244;49.088;11.886;2022-12-10T19:10:23;94867.69;;;3.39;54.42
27425;BME280;15244;49.088;11.886;2022-12-10T19:15:34;94872.22;;;3.35;54.50
27425;BME280;15244;49.088;11.886;2022-12-10T19:20:48;94876.00;;;3.31;54.51
27425;BME280;15244;49.088;11.886;2022-12-10T19:26:00;94883.31;;;3.30;54.45
27425;BME280;15244;49.088;11.886;2022-12-10T19:31:12;94882.94;;;3.32;54.38
27425;BME280;15244;49.088;11.886;2022-12-10T19:36:23;94889.31;;;3.23;54.36
27425;BME280;15244;49.088;11.886;2022-12-10T19:41:37;94885.88;;;3.23;54.43
27425;BME280;15244;49.088;11.886;2022-12-10T19:46:43;94886.16;;;3.18;54.37
27425;BME280;15244;49.088;11.886;2022-12-10T19:51:46;94884.09;;;3.11;54.30
27425;BME280;15244;49.088;11.886;2022-12-10T19:56:47;94883.75;;;3.13;54.80
27425;BME280;15244;49.088;11.886;2022-12-10T20:01:51;94889.47;;;3.11;54.91
27425;BME280;15244;49.088;11.886;2022-12-10T20:06:58;94884.09;;;3.11;55.25
27425;BME280;15244;49.088;11.886;2022-12-10T20:12:07;94886.72;;;3.08;55.10
27425;BME280;15244;49.088;11.886;2022-12-10T20:17:11;94891.69;;;3.06;54.63
27425;BME280;15244;49.088;11.886;2022-12-10T20:22:19;94884.94;;;2.96;55.17
27425;BME280;15244;49.088;11.886;2022-12-10T20:27:25;94892.81;;;2.85;54.55
27425;BME280;15244;49.088;11.886;2022-12-10T20:32:30;94883.97;;;2.85;54.65
27425;BME280;15244;49.088;11.886;2022-12-10T20:37:34;94877.38;;;2.82;54.53
27425;BME280;15244;49.088;11.886;2022-12-10T20:42:42;94867.88;;;2.88;54.49
27425;BME280;15244;49.088;11.886;2022-12-10T20:47:44;94867.97;;;2.92;54.68
27425;BME280;15244;49.088;11.886;2022-12-10T20:52:49;94879.56;;;2.96;54.49
27425;BME280;15244;49.088;11.886;2022-12-10T20:57:56;94876.59;;;3.01;54.07
27425;BME280;15244;49.088;11.886;2022-12-10T21:03:03;94890.19;;;3.08;54.26
27425;BME280;15244;49.088;11.886;2022-12-10T21:08:12;94897.56;;;3.11;53.75
27425;BME280;15244;49.088;11.886;2022-12-10T21:13:26;94909.25;;;3.19;54.19
27425;BME280;15244;49.088;11.886;2022-12-10T21:18:36;94912.38;;;3.21;53.82
27425;BME280;15244;49.088;11.886;2022-12-10T21:23:41;94910.41;;;3.18;53.49
27425;BME280;15244;49.088;11.886;2022-12-10T21:28:43;94899.63;;;3.18;53.43
27425;BME280;15244;49.088;11.886;2022-12-10T21:33:46;94896.16;;;3.17;53.14
27425;BME280;15244;49.088;11.886;2022-12-10T21:39:04;94898.06;;;3.17;53.07
27425;BME280;15244;49.088;11.886;2022-12-10T21:44:06;94895.72;;;3.15;52.94
27425;BME280;15244;49.088;11.886;2022-12-10T21:49:08;94901.44;;;3.14;52.97
27425;BME280;15244;49.088;11.886;2022-12-10T21:54:10;94904.53;;;3.12;52.75
27425;BME280;15244;49.088;11.886;2022-12-10T21:59:22;94903.75;;;3.12;52.55
27425;BME280;15244;49.088;11.886;2022-12-10T22:04:25;94902.53;;;3.09;52.24
27425;BME280;15244;49.088;11.886;2022-12-10T22:09:34;94902.53;;;3.09;51.96
27425;BME280;15244;49.088;11.886;2022-12-10T22:14:45;94900.97;;;3.08;52.09
27425;BME280;15244;49.088;11.886;2022-12-10T22:19:58;94905.44;;;3.00;51.88
27425;BME280;15244;49.088;11.886;2022-12-10T22:25:13;94898.06;;;2.97;51.84
27425;BME280;15244;49.088;11.886;2022-12-10T22:30:19;94908.84;;;2.97;51.94
27425;BME280;15244;49.088;11.886;2022-12-10T22:35:28;94903.13;;;2.99;52.07
27425;BME280;15244;49.088;11.886;2022-12-10T22:40:41;94900.41;;;2.99;52.14
27425;BME280;15244;49.088;11.886;2022-12-10T22:45:43;94900.72;;;2.94;51.79
27425;BME280;15244;49.088;11.886;2022-12-10T22:50:45;94892.09;;;2.88;52.28
27425;BME280;15244;49.088;11.886;2022-12-10T22:55:59;94896.72;;;2.88;52.02
27425;BME280;15244;49.088;11.886;2022-12-10T23:01:16;94888.22;;;2.86;51.68
27425;BME280;15244;49.088;11.886;2022-12-10T23:06:29;94894.81;;;2.88;51.72
27425;BME280;15244;49.088;11.886;2022-12-10T23:11:40;94892.97;;;2.92;52.10
27425;BME280;15244;49.088;11.886;2022-12-10T23:17:02;94893.03;;;2.96;52.14
27425;BME280;15244;49.088;11.886;2022-12-10T23:22:13;94891.53;;;2.98;51.95
27425;BME280;15244;49.088;11.886;2022-12-10T23:27:32;94900.06;;;3.00;51.94
27425;BME280;15244;49.088;11.886;2022-12-10T23:32:36;94891.19;;;3.00;51.80
27425;BME280;15244;49.088;11.886;2022-12-10T23:37:48;94886.16;;;2.98;51.93
27425;BME280;15244;49.088;11.886;2022-12-10T23:43:00;94886.53;;;2.97;51.48
27425;BME280;15244;49.088;11.886;2022-12-10T23:48:02;94879.22;;;2.97;51.89
27425;BME280;15244;49.088;11.886;2022-12-10T23:53:09;94883.41;;;2.95;51.65
27425;BME280;15244;49.088;11.886;2022-12-10T23:58:11;94887.59;;;2.92;51.77
